sensor_id;sensor_type;location;lat;lon;timestamp;pressure;altitude;pressure_sealevel;temperature;humidity
37852;BME280;23691;52.486;4.650;2022-12-18T00:02:03;102796.47;;;-1.21;80.13
37852;BME280;23691;52.486;4.650;2022-12-18T00:04:29;102795.63;;;-1.23;80.25
37852;BME280;23691;52.486;4.650;2022-12-18T00:06:54;102786.03;;;-1.24;80.30
37852;BME280;23691;52.486;4.650;2022-12-18T00:09:20;102792.97;;;-1.22;80.08
37852;BME280;23691;52.486;4.650;2022-12-18T00:11:46;102790.47;;;-1.26;80.22
37852;BME280;23691;52.486;4.650;2022-12-18T00:14:13;102790.66;;;-1.33;80.15
37852;BME280;23691;52.486;4.650;2022-12-18T00:16:39;102791.59;;;-1.35;80.23
37852;BME280;23691;52.486;4.650;2022-12-18T00:19:06;102793.22;;;-1.31;80.43
37852;BME280;23691;52.486;4.650;2022-12-18T00:21:33;102801.91;;;-1.29;80.57
37852;BME280;23691;52.486;4.650;2022-12-18T00:23:59;102799.28;;;-1.29;79.96
37852;BME280;23691;52.486;4.650;2022-12-18T00:26:27;102791.44;;;-1.31;80.02
37852;BME280;23691;52.486;4.650;2022-12-18T00:28:54;102793.13;;;-1.28;80.24
37852;BME280;23691;52.486;4.650;2022-12-18T00:31:24;102800.16;;;-1.28;80.05
37852;BME280;23691;52.486;4.650;2022-12-18T00:33:50;102796.66;;;-1.29;80.14
37852;BME280;23691;52.486;4.650;2022-12-18T00:36:20;102797.50;;;-1.27;80.03
37852;BME280;23691;52.486;4.650;2022-12-18T00:38:45;102796.56;;;-1.24;80.31
37852;BME280;23691;52.486;4.650;2022-12-18T00:41:13;102796.56;;;-1.24;80.09
37852;BME280;23691;52.486;4.650;2022-12-18T00:43:59;102783.41;;;-1.24;79.79
37852;BME280;23691;52.486;4.650;2022-12-18T00:46:25;102782.47;;;-1.22;79.98
37852;BME280;23691;52.486;4.650;2022-12-18T00:48:50;102771.13;;;-1.24;79.71
37852;BME280;23691;52.486;4.650;2022-12-18T00:51:16;102770.44;;;-1.31;79.90
37852;BME280;23691;52.486;4.650;2022-12-18T00:53:41;102772.13;;;-1.28;80.08
37852;BME280;23691;52.486;4.650;2022-12-18T00:56:06;102779.97;;;-1.26;80.03
37852;BME280;23691;52.486;4.650;2022-12-18T00:58:37;102784.34;;;-1.25;79.81
37852;BME280;23691;52.486;4.650;2022-12-18T01:01:04;102790.47;;;-1.26;79.91
37852;BME280;23691;52.486;4.650;2022-12-18T01:03:30;102797.53;;;-1.28;80.04
37852;BME280;23691;52.486;4.650;2022-12-18T01:05:56;102792.56;;;-1.39;80.37
37852;BME280;23691;52.486;4.650;2022-12-18T01:08:21;102805.78;;;-1.42;80.55
37852;BME280;23691;52.486;4.650;2022-12-18T01:10:47;102806.63;;;-1.42;80.17
37852;BME280;23691;52.486;4.650;2022-12-18T01:13:12;102804.75;;;-1.37;80.34
37852;BME280;23691;52.486;4.650;2022-12-18T01:15:38;102803.81;;;-1.34;80.54
37852;BME280;23691;52.486;4.650;2022-12-18T01:18:03;102804.56;;;-1.31;79.97
37852;BME280;23691;52.486;4.650;2022-12-18T01:20:28;102806.22;;;-1.26;80.10
37852;BME280;23691;52.486;4.650;2022-12-18T01:22:54;102810.66;;;-1.28;80.31
37852;BME280;23691;52.486;4.650;2022-12-18T01:25:19;102808.03;;;-1.28;80.36
37852;BME280;23691;52.486;4.650;2022-12-18T01:27:45;102808.84;;;-1.26;80.14
37852;BME280;23691;52.486;4.650;2022-12-18T01:30:10;102810.59;;;-1.25;80.06
37852;BME280;23691;52.486;4.650;2022-12-18T01:32:36;102806.31;;;-1.30;80.09
37852;BME280;23691;52.486;4.650;2022-12-18T01:35:01;102815.13;;;-1.32;80.38
37852;BME280;23691;52.486;4.650;2022-12-18T01:37:27;102822.16;;;-1.33;80.33
37852;BME280;23691;52.486;4.650;2022-12-18T01:39:53;102821.28;;;-1.33;80.07
37852;BME280;23691;52.486;4.650;2022-12-18T01:42:20;102824.84;;;-1.36;80.23
37852;BME280;23691;52.486;4.650;2022-12-18T01:45:02;102826.78;;;-1.42;80.11
37852;BME280;23691;52.486;4.650;2022-12-18T01:47:42;102819.88;;;-1.46;80.44
37852;BME280;23691;52.486;4.650;2022-12-18T01:50:13;102812.81;;;-1.44;80.38
37852;BME280;23691;52.486;4.650;2022-12-18T01:52:41;102820.66;;;-1.43;80.15
37852;BME280;23691;52.486;4.650;2022-12-18T01:55:08;102831.94;;;-1.39;80.34
37852;BME280;23691;52.486;4.650;2022-12-18T01:57:34;102839.81;;;-1.38;80.17
37852;BME280;23691;52.486;4.650;2022-12-18T02:00:10;102842.47;;;-1.41;80.19
37852;BME280;23691;52.486;4.650;2022-12-18T02:02:36;102845.28;;;-1.47;80.08
37852;BME280;23691;52.486;4.650;2022-12-18T02:05:03;102851.34;;;-1.45;80.01
37852;BME280;23691;52.486;4.650;2022-12-18T02:07:42;102845.31;;;-1.48;80.11
37852;BME280;23691;52.486;4.650;2022-12-18T02:15:43;102849.69;;;-1.49;80.20
37852;BME280;23691;52.486;4.650;2022-12-18T02:18:19;102835.72;;;-1.49;80.12
37852;BME280;23691;52.486;4.650;2022-12-18T02:20:55;102825.97;;;-1.46;79.99
37852;BME280;23691;52.486;4.650;2022-12-18T02:26:58;102834.13;;;-1.57;80.03
37852;BME280;23691;52.486;4.650;2022-12-18T02:29:26;102832.38;;;-1.56;79.78
37852;BME280;23691;52.486;4.650;2022-12-18T02:31:56;102822.66;;;-1.53;79.83
37852;BME280;23691;52.486;4.650;2022-12-18T02:34:30;102812.16;;;-1.53;79.95
37852;BME280;23691;52.486;4.650;2022-12-18T02:36:57;102814.00;;;-1.56;79.80
37852;BME280;23691;52.486;4.650;2022-12-18T02:39:26;102811.38;;;-1.58;79.58
37852;BME280;23691;52.486;4.650;2022-12-18T02:41:54;102805.25;;;-1.57;79.96
37852;BME280;23691;52.486;4.650;2022-12-18T02:44:19;102800.00;;;-1.57;80.09
37852;BME280;23691;52.486;4.650;2022-12-18T02:46:45;102804.41;;;-1.57;79.72
37852;BME280;23691;52.486;4.650;2022-12-18T02:52:33;102806.22;;;-1.61;79.57
37852;BME280;23691;52.486;4.650;2022-12-18T02:57:56;102807.34;;;-1.71;80.12
37852;BME280;23691;52.486;4.650;2022-12-18T03:00:29;102803.81;;;-1.70;79.99
37852;BME280;23691;52.486;4.650;2022-12-18T03:03:04;102806.41;;;-1.68;79.92
37852;BME280;23691;52.486;4.650;2022-12-18T03:05:46;102809.94;;;-1.69;80.06
37852;BME280;23691;52.486;4.650;2022-12-18T03:08:18;102798.63;;;-1.71;79.74
37852;BME280;23691;52.486;4.650;2022-12-18T03:11:01;102790.75;;;-1.71;79.92
37852;BME280;23691;52.486;4.650;2022-12-18T03:15:57;102792.66;;;-1.78;79.74
37852;BME280;23691;52.486;4.650;2022-12-18T03:18:38;102787.31;;;-1.75;79.89
37852;BME280;23691;52.486;4.650;2022-12-18T03:21:07;102776.81;;;-1.75;79.82
37852;BME280;23691;52.486;4.650;2022-12-18T03:23:43;102780.28;;;-1.73;79.54
37852;BME280;23691;52.486;4.650;2022-12-18T03:26:14;102782.19;;;-1.80;80.33
37852;BME280;23691;52.486;4.650;2022-12-18T03:28:45;102790.00;;;-1.77;80.14
37852;BME280;23691;52.486;4.650;2022-12-18T03:31:13;102792.66;;;-1.78;79.96
37852;BME280;23691;52.486;4.650;2022-12-18T03:33:45;102786.53;;;-1.77;79.81
37852;BME280;23691;52.486;4.650;2022-12-18T03:36:12;102786.56;;;-1.79;79.92
37852;BME280;23691;52.486;4.650;2022-12-18T03:38:38;102779.56;;;-1.80;80.01
37852;BME280;23691;52.486;4.650;2022-12-18T03:41:15;102783.00;;;-1.78;79.85
37852;BME280;23691;52.486;4.650;2022-12-18T03:43:57;102787.44;;;-1.80;79.72
37852;BME280;23691;52.486;4.650;2022-12-18T03:46:41;102777.06;;;-1.84;79.92
37852;BME280;23691;52.486;4.650;2022-12-18T03:49:17;102769.13;;;-1.83;80.10
37852;BME280;23691;52.486;4.650;2022-12-18T03:51:48;102772.59;;;-1.81;79.90
37852;BME280;23691;52.486;4.650;2022-12-18T03:54:16;102759.47;;;-1.81;80.05
37852;BME280;23691;52.486;4.650;2022-12-18T03:56:49;102755.19;;;-1.85;79.93
37852;BME280;23691;52.486;4.650;2022-12-18T03:59:17;102750.88;;;-1.87;79.44
37852;BME280;23691;52.486;4.650;2022-12-18T04:01:47;102749.09;;;-1.85;79.72
37852;BME280;23691;52.486;4.650;2022-12-18T04:04:16;102756.09;;;-1.86;79.83
37852;BME280;23691;52.486;4.650;2022-12-18T04:06:43;102757.06;;;-1.90;79.30
37852;BME280;23691;52.486;4.650;2022-12-18T04:09:10;102756.22;;;-1.90;79.71
37852;BME280;23691;52.486;4.650;2022-12-18T04:11:36;102749.19;;;-1.90;79.50
37852;BME280;23691;52.486;4.650;2022-12-18T04:14:01;102748.44;;;-1.93;79.82
37852;BME280;23691;52.486;4.650;2022-12-18T04:16:27;102749.28;;;-1.93;80.10
37852;BME280;23691;52.486;4.650;2022-12-18T04:18:53;102753.59;;;-1.90;79.49
37852;BME280;23691;52.486;4.650;2022-12-18T04:21:19;102764.09;;;-1.92;79.72
37852;BME280;23691;52.486;4.650;2022-12-18T04:23:45;102762.41;;;-1.93;79.47
37852;BME280;23691;52.486;4.650;2022-12-18T04:26:10;102764.19;;;-1.95;79.35
37852;BME280;23691;52.486;4.650;2022-12-18T04:28:36;102772.22;;;-2.01;79.70
37852;BME280;23691;52.486;4.650;2022-12-18T04:31:01;102780.16;;;-2.04;79.56
37852;BME280;23691;52.486;4.650;2022-12-18T04:33:28;102774.13;;;-2.09;79.80
37852;BME280;23691;52.486;4.650;2022-12-18T04:35:53;102776.91;;;-2.14;79.83
37852;BME280;23691;52.486;4.650;2022-12-18T04:38:20;102774.28;;;-2.14;79.77
37852;BME280;23691;52.486;4.650;2022-12-18T04:40:45;102779.47;;;-2.12;79.75
37852;BME280;23691;52.486;4.650;2022-12-18T04:43:11;102795.25;;;-2.14;79.55
37852;BME280;23691;52.486;4.650;2022-12-18T04:45:36;102796.94;;;-2.11;79.69
37852;BME280;23691;52.486;4.650;2022-12-18T04:48:02;102807.44;;;-2.11;79.60
37852;BME280;23691;52.486;4.650;2022-12-18T04:50:29;102803.94;;;-2.12;79.20
37852;BME280;23691;52.486;4.650;2022-12-18T04:52:55;102804.84;;;-2.14;79.20
37852;BME280;23691;52.486;4.650;2022-12-18T04:55:20;102811.00;;;-2.16;79.57
37852;BME280;23691;52.486;4.650;2022-12-18T04:57:46;102808.47;;;-2.19;79.14
37852;BME280;23691;52.486;4.650;2022-12-18T05:00:12;102808.56;;;-2.23;79.41
37852;BME280;23691;52.486;4.650;2022-12-18T05:02:37;102800.63;;;-2.20;79.20
37852;BME280;23691;52.486;4.650;2022-12-18T05:05:03;102796.25;;;-2.20;78.93
37852;BME280;23691;52.486;4.650;2022-12-18T05:07:29;102794.53;;;-2.22;79.14
37852;BME280;23691;52.486;4.650;2022-12-18T05:09:54;102798.84;;;-2.20;79.24
37852;BME280;23691;52.486;4.650;2022-12-18T05:12:25;102808.50;;;-2.20;79.24
37852;BME280;23691;52.486;4.650;2022-12-18T05:14:51;102812.88;;;-2.21;78.80
37852;BME280;23691;52.486;4.650;2022-12-18T05:17:17;102812.97;;;-2.24;78.80
37852;BME280;23691;52.486;4.650;2022-12-18T05:19:42;102814.75;;;-2.27;78.99
37852;BME280;23691;52.486;4.650;2022-12-18T05:22:08;102817.38;;;-2.27;79.22
37852;BME280;23691;52.486;4.650;2022-12-18T05:24:34;102815.69;;;-2.30;78.52
37852;BME280;23691;52.486;4.650;2022-12-18T05:26:59;102801.75;;;-2.32;78.94
37852;BME280;23691;52.486;4.650;2022-12-18T05:29:25;102803.53;;;-2.32;79.04
37852;BME280;23691;52.486;4.650;2022-12-18T05:31:50;102800.03;;;-2.33;78.95
37852;BME280;23691;52.486;4.650;2022-12-18T05:34:16;102791.34;;;-2.35;78.88
37852;BME280;23691;52.486;4.650;2022-12-18T05:36:41;102792.25;;;-2.36;78.68
37852;BME280;23691;52.486;4.650;2022-12-18T05:39:06;102791.34;;;-2.37;78.91
37852;BME280;23691;52.486;4.650;2022-12-18T05:41:32;102782.84;;;-2.46;78.55
37852;BME280;23691;52.486;4.650;2022-12-18T05:43:58;102782.03;;;-2.48;78.69
37852;BME280;23691;52.486;4.650;2022-12-18T05:46:23;102785.50;;;-2.48;78.95
37852;BME280;23691;52.486;4.650;2022-12-18T05:48:49;102791.59;;;-2.46;78.78
37852;BME280;23691;52.486;4.650;2022-12-18T05:51:18;102778.47;;;-2.46;78.52
37852;BME280;23691;52.486;4.650;2022-12-18T05:53:43;102776.72;;;-2.47;78.31
37852;BME280;23691;52.486;4.650;2022-12-18T05:56:21;102785.53;;;-2.49;78.42
37852;BME280;23691;52.486;4.650;2022-12-18T05:58:47;102782.06;;;-2.51;78.71
37852;BME280;23691;52.486;4.650;2022-12-18T06:01:21;102774.28;;;-2.54;78.44
37852;BME280;23691;52.486;4.650;2022-12-18T06:03:46;102771.69;;;-2.56;78.57
37852;BME280;23691;52.486;4.650;2022-12-18T06:06:22;102778.69;;;-2.56;78.49
37852;BME280;23691;52.486;4.650;2022-12-18T06:08:49;102780.47;;;-2.59;78.07
37852;BME280;23691;52.486;4.650;2022-12-18T06:11:24;102782.25;;;-2.59;77.93
37852;BME280;23691;52.486;4.650;2022-12-18T06:13:54;102791.88;;;-2.61;77.85
37852;BME280;23691;52.486;4.650;2022-12-18T06:16:20;102779.66;;;-2.61;77.96
37852;BME280;23691;52.486;4.650;2022-12-18T06:18:45;102777.06;;;-2.62;78.06
37852;BME280;23691;52.486;4.650;2022-12-18T06:21:11;102758.75;;;-2.64;77.86
37852;BME280;23691;52.486;4.650;2022-12-18T06:23:37;102769.22;;;-2.62;77.98
37852;BME280;23691;52.486;4.650;2022-12-18T06:26:11;102755.31;;;-2.66;78.03
37852;BME280;23691;52.486;4.650;2022-12-18T06:28:37;102739.59;;;-2.66;77.95
37852;BME280;23691;52.486;4.650;2022-12-18T06:31:03;102728.19;;;-2.63;78.03
37852;BME280;23691;52.486;4.650;2022-12-18T06:33:29;102729.88;;;-2.61;78.16
37852;BME280;23691;52.486;4.650;2022-12-18T06:36:21;102720.28;;;-2.62;77.81
37852;BME280;23691;52.486;4.650;2022-12-18T06:38:47;102716.81;;;-2.64;77.85
37852;BME280;23691;52.486;4.650;2022-12-18T06:41:18;102719.41;;;-2.62;77.79
37852;BME280;23691;52.486;4.650;2022-12-18T06:43:44;102731.69;;;-2.64;77.67
37852;BME280;23691;52.486;4.650;2022-12-18T06:46:10;102733.47;;;-2.66;77.60
37852;BME280;23691;52.486;4.650;2022-12-18T06:48:36;102739.59;;;-2.66;77.81
37852;BME280;23691;52.486;4.650;2022-12-18T06:51:01;102728.28;;;-2.68;77.69
37852;BME280;23691;52.486;4.650;2022-12-18T06:53:27;102718.56;;;-2.64;77.84
37852;BME280;23691;52.486;4.650;2022-12-18T06:55:52;102715.97;;;-2.64;77.84
37852;BME280;23691;52.486;4.650;2022-12-18T06:58:18;102702.94;;;-2.69;77.70
37852;BME280;23691;52.486;4.650;2022-12-18T07:00:43;102721.28;;;-2.67;77.71
37852;BME280;23691;52.486;4.650;2022-12-18T07:03:09;102717.78;;;-2.68;77.52
37852;BME280;23691;52.486;4.650;2022-12-18T07:05:39;102702.94;;;-2.69;77.44
37852;BME280;23691;52.486;4.650;2022-12-18T07:08:05;102702.94;;;-2.69;77.44
37852;BME280;23691;52.486;4.650;2022-12-18T07:10:31;102714.31;;;-2.68;77.55
37852;BME280;23691;52.486;4.650;2022-12-18T07:12:56;102710.88;;;-2.72;77.42
37852;BME280;23691;52.486;4.650;2022-12-18T07:15:22;102701.25;;;-2.70;77.61
37852;BME280;23691;52.486;4.650;2022-12-18T07:17:47;102704.78;;;-2.72;77.37
37852;BME280;23691;52.486;4.650;2022-12-18T07:20:12;102707.34;;;-2.71;77.54
37852;BME280;23691;52.486;4.650;2022-12-18T07:22:38;102701.25;;;-2.70;77.53
37852;BME280;23691;52.486;4.650;2022-12-18T07:25:06;102686.44;;;-2.72;77.50
37852;BME280;23691;52.486;4.650;2022-12-18T07:27:31;102682.16;;;-2.75;77.40
37852;BME280;23691;52.486;4.650;2022-12-18T07:29:57;102660.28;;;-2.74;77.08
37852;BME280;23691;52.486;4.650;2022-12-18T07:32:22;102658.59;;;-2.76;77.39
37852;BME280;23691;52.486;4.650;2022-12-18T07:34:47;102645.53;;;-2.78;76.97
37852;BME280;23691;52.486;4.650;2022-12-18T07:37:13;102645.59;;;-2.81;76.95
37852;BME280;23691;52.486;4.650;2022-12-18T07:39:39;102641.25;;;-2.82;77.47
37852;BME280;23691;52.486;4.650;2022-12-18T07:42:04;102630.78;;;-2.82;76.83
37852;BME280;23691;52.486;4.650;2022-12-18T07:44:48;102622.00;;;-2.81;77.28
37852;BME280;23691;52.486;4.650;2022-12-18T07:47:15;102616.84;;;-2.84;77.25
37852;BME280;23691;52.486;4.650;2022-12-18T07:49:40;102615.13;;;-2.85;77.52
37852;BME280;23691;52.486;4.650;2022-12-18T07:52:08;102627.31;;;-2.84;77.15
37852;BME280;23691;52.486;4.650;2022-12-18T07:54:34;102631.66;;;-2.83;76.97
37852;BME280;23691;52.486;4.650;2022-12-18T07:57:00;102641.28;;;-2.84;76.94
37852;BME280;23691;52.486;4.650;2022-12-18T07:59:25;102650.06;;;-2.86;77.02
37852;BME280;23691;52.486;4.650;2022-12-18T08:01:51;102652.75;;;-2.88;77.23
37852;BME280;23691;52.486;4.650;2022-12-18T08:04:16;102650.97;;;-2.87;77.24
37852;BME280;23691;52.486;4.650;2022-12-18T08:06:42;102647.44;;;-2.86;77.11
37852;BME280;23691;52.486;4.650;2022-12-18T08:09:09;102661.34;;;-2.83;77.27
37852;BME280;23691;52.486;4.650;2022-12-18T08:11:37;102663.97;;;-2.83;77.02
37852;BME280;23691;52.486;4.650;2022-12-18T08:14:03;102658.75;;;-2.83;77.04
37852;BME280;23691;52.486;4.650;2022-12-18T08:16:29;102655.19;;;-2.82;76.64
37852;BME280;23691;52.486;4.650;2022-12-18T08:18:56;102668.22;;;-2.78;76.55
37852;BME280;23691;52.486;4.650;2022-12-18T08:21:24;102678.69;;;-2.77;76.56
37852;BME280;23691;52.486;4.650;2022-12-18T08:23:50;102671.69;;;-2.76;76.69
37852;BME280;23691;52.486;4.650;2022-12-18T08:26:17;102665.59;;;-2.78;76.23
37852;BME280;23691;52.486;4.650;2022-12-18T08:28:42;102659.50;;;-2.77;76.55
37852;BME280;23691;52.486;4.650;2022-12-18T08:31:09;102659.41;;;-2.74;76.40
37852;BME280;23691;52.486;4.650;2022-12-18T08:33:36;102652.38;;;-2.72;76.40
37852;BME280;23691;52.486;4.650;2022-12-18T08:36:03;102654.09;;;-2.71;76.57
37852;BME280;23691;52.486;4.650;2022-12-18T08:38:29;102649.66;;;-2.68;76.23
37852;BME280;23691;52.486;4.650;2022-12-18T08:41:05;102653.97;;;-2.65;76.29
37852;BME280;23691;52.486;4.650;2022-12-18T08:43:31;102654.81;;;-2.63;76.24
37852;BME280;23691;52.486;4.650;2022-12-18T08:46:15;102659.97;;;-2.60;76.18
37852;BME280;23691;52.486;4.650;2022-12-18T08:48:41;102662.53;;;-2.59;76.36
37852;BME280;23691;52.486;4.650;2022-12-18T08:51:06;102658.06;;;-2.53;75.87
37852;BME280;23691;52.486;4.650;2022-12-18T08:53:35;102658.84;;;-2.48;75.74
37852;BME280;23691;52.486;4.650;2022-12-18T08:56:00;102649.09;;;-2.43;75.92
37852;BME280;23691;52.486;4.650;2022-12-18T08:58:25;102650.72;;;-2.39;75.96
37852;BME280;23691;52.486;4.650;2022-12-18T09:00:51;102649.78;;;-2.37;76.15
37852;BME280;23691;52.486;4.650;2022-12-18T09:03:17;102654.06;;;-2.32;75.96
37852;BME280;23691;52.486;4.650;2022-12-18T09:05:45;102654.03;;;-2.31;75.86
37852;BME280;23691;52.486;4.650;2022-12-18T09:08:14;102652.19;;;-2.27;75.76
37852;BME280;23691;52.486;4.650;2022-12-18T09:10:43;102647.81;;;-2.27;75.90
37852;BME280;23691;52.486;4.650;2022-12-18T09:13:10;102650.31;;;-2.22;75.57
37852;BME280;23691;52.486;4.650;2022-12-18T09:15:47;102642.44;;;-2.21;75.52
37852;BME280;23691;52.486;4.650;2022-12-18T09:18:14;102640.56;;;-2.17;75.78
37852;BME280;23691;52.486;4.650;2022-12-18T09:20:40;102641.38;;;-2.13;75.68
37852;BME280;23691;52.486;4.650;2022-12-18T09:23:06;102635.06;;;-2.06;75.73
37852;BME280;23691;52.486;4.650;2022-12-18T09:25:32;102626.19;;;-2.01;75.07
37852;BME280;23691;52.486;4.650;2022-12-18T09:27:59;102626.09;;;-1.98;75.34
37852;BME280;23691;52.486;4.650;2022-12-18T09:30:24;102626.91;;;-1.96;75.75
37852;BME280;23691;52.486;4.650;2022-12-18T09:32:49;102622.41;;;-1.90;75.52
37852;BME280;23691;52.486;4.650;2022-12-18T09:35:15;102617.88;;;-1.84;75.38
37852;BME280;23691;52.486;4.650;2022-12-18T09:37:40;102614.22;;;-1.78;75.28
37852;BME280;23691;52.486;4.650;2022-12-18T09:40:18;102603.63;;;-1.75;75.07
37852;BME280;23691;52.486;4.650;2022-12-18T09:43:04;102597.38;;;-1.69;75.43
37852;BME280;23691;52.486;4.650;2022-12-18T09:45:40;102598.97;;;-1.65;75.45
37852;BME280;23691;52.486;4.650;2022-12-18T09:48:17;102587.59;;;-1.64;75.17
37852;BME280;23691;52.486;4.650;2022-12-18T09:50:44;102589.31;;;-1.63;75.09
37852;BME280;23691;52.486;4.650;2022-12-18T09:53:22;102594.44;;;-1.59;75.28
37852;BME280;23691;52.486;4.650;2022-12-18T09:55:51;102601.31;;;-1.55;75.26
37852;BME280;23691;52.486;4.650;2022-12-18T09:59:03;102610.03;;;-1.53;75.48
37852;BME280;23691;52.486;4.650;2022-12-18T10:01:29;102607.34;;;-1.51;75.42
37852;BME280;23691;52.486;4.650;2022-12-18T10:03:55;102609.84;;;-1.46;75.46
37852;BME280;23691;52.486;4.650;2022-12-18T10:09:01;102613.28;;;-1.44;75.14
37852;BME280;23691;52.486;4.650;2022-12-18T10:11:55;102620.94;;;-1.37;75.22
37852;BME280;23691;52.486;4.650;2022-12-18T10:14:34;102606.03;;;-1.36;75.15
37852;BME280;23691;52.486;4.650;2022-12-18T10:23:04;102605.78;;;-1.27;74.73
37852;BME280;23691;52.486;4.650;2022-12-18T10:28:22;102601.25;;;-1.22;74.75
37852;BME280;23691;52.486;4.650;2022-12-18T10:30:48;102609.03;;;-1.19;74.88
37852;BME280;23691;52.486;4.650;2022-12-18T10:33:17;102606.41;;;-1.19;74.61
37852;BME280;23691;52.486;4.650;2022-12-18T10:35:44;102588.88;;;-1.18;74.74
37852;BME280;23691;52.486;4.650;2022-12-18T10:43:14;102573.75;;;-1.10;74.52
37852;BME280;23691;52.486;4.650;2022-12-18T10:45:41;102561.47;;;-1.10;74.58
37852;BME280;23691;52.486;4.650;2022-12-18T10:48:21;102552.75;;;-1.10;74.74
37852;BME280;23691;52.486;4.650;2022-12-18T10:50:50;102547.38;;;-1.07;74.73
37852;BME280;23691;52.486;4.650;2022-12-18T10:53:25;102549.91;;;-1.04;74.54
37852;BME280;23691;52.486;4.650;2022-12-18T10:55:53;102540.34;;;-1.06;74.94
37852;BME280;23691;52.486;4.650;2022-12-18T10:58:26;102539.34;;;-1.02;74.81
37852;BME280;23691;52.486;4.650;2022-12-18T11:01:16;102534.06;;;-1.01;74.79
37852;BME280;23691;52.486;4.650;2022-12-18T11:03:45;102535.78;;;-1.00;74.70
37852;BME280;23691;52.486;4.650;2022-12-18T11:06:19;102534.84;;;-0.99;74.87
37852;BME280;23691;52.486;4.650;2022-12-18T11:09:18;102541.63;;;-0.92;74.62
37852;BME280;23691;52.486;4.650;2022-12-18T11:11:53;102547.72;;;-0.90;74.27
37852;BME280;23691;52.486;4.650;2022-12-18T11:14:28;102543.25;;;-0.88;74.21
37852;BME280;23691;52.486;4.650;2022-12-18T11:16:55;102535.25;;;-0.83;74.54
37852;BME280;23691;52.486;4.650;2022-12-18T11:19:36;102532.50;;;-0.80;74.31
37852;BME280;23691;52.486;4.650;2022-12-18T11:22:21;102539.41;;;-0.76;74.37
37852;BME280;23691;52.486;4.650;2022-12-18T11:27:22;102525.13;;;-0.69;74.26
37852;BME280;23691;52.486;4.650;2022-12-18T11:29:50;102529.31;;;-0.63;74.44
37852;BME280;23691;52.486;4.650;2022-12-18T11:32:37;102522.13;;;-0.58;74.33
37852;BME280;23691;52.486;4.650;2022-12-18T11:35:08;102526.47;;;-0.57;74.34
37852;BME280;23691;52.486;4.650;2022-12-18T11:37:37;102508.97;;;-0.56;74.12
37852;BME280;23691;52.486;4.650;2022-12-18T11:40:17;102508.06;;;-0.57;74.36
37852;BME280;23691;52.486;4.650;2022-12-18T11:45:25;102492.38;;;-0.58;74.13
37852;BME280;23691;52.486;4.650;2022-12-18T11:48:20;102486.16;;;-0.56;74.15
37852;BME280;23691;52.486;4.650;2022-12-18T11:50:57;102487.84;;;-0.55;73.82
37852;BME280;23691;52.486;4.650;2022-12-18T11:53:26;102472.03;;;-0.53;74.00
37852;BME280;23691;52.486;4.650;2022-12-18T11:56:16;102457.88;;;-0.49;73.99
37852;BME280;23691;52.486;4.650;2022-12-18T12:01:54;102461.13;;;-0.43;73.88
37852;BME280;23691;52.486;4.650;2022-12-18T12:07:25;102451.31;;;-0.37;73.83
37852;BME280;23691;52.486;4.650;2022-12-18T12:15:56;102450.19;;;-0.30;73.82
37852;BME280;23691;52.486;4.650;2022-12-18T12:23:49;102426.19;;;-0.21;73.69
37852;BME280;23691;52.486;4.650;2022-12-18T12:26:26;102435.59;;;-0.15;73.67
37852;BME280;23691;52.486;4.650;2022-12-18T12:29:39;102425.03;;;-0.14;73.70
37852;BME280;23691;52.486;4.650;2022-12-18T12:32:25;102418.69;;;-0.08;73.57
37852;BME280;23691;52.486;4.650;2022-12-18T12:35:04;102407.31;;;-0.09;73.55
37852;BME280;23691;52.486;4.650;2022-12-18T12:38:03;102410.75;;;-0.07;73.66
37852;BME280;23691;52.486;4.650;2022-12-18T12:40:34;102398.44;;;-0.06;73.61
37852;BME280;23691;52.486;4.650;2022-12-18T12:43:10;102388.75;;;-0.06;73.74
37852;BME280;23691;52.486;4.650;2022-12-18T12:48:19;102396.63;;;-0.04;73.33
37852;BME280;23691;52.486;4.650;2022-12-18T12:50:47;102391.22;;;-0.01;73.64
37852;BME280;23691;52.486;4.650;2022-12-18T12:53:29;102385.97;;;-0.01;73.47
37852;BME280;23691;52.486;4.650;2022-12-18T12:55:56;102377.25;;;-0.03;73.42
37852;BME280;23691;52.486;4.650;2022-12-18T12:58:34;102379.81;;;0.00;73.49
37852;BME280;23691;52.486;4.650;2022-12-18T13:01:10;102379.72;;;0.02;73.33
37852;BME280;23691;52.486;4.650;2022-12-18T13:03:46;102371.69;;;0.05;73.44
37852;BME280;23691;52.486;4.650;2022-12-18T13:08:56;102380.41;;;0.07;73.42
37852;BME280;23691;52.486;4.650;2022-12-18T13:11:45;102383.03;;;0.07;73.36
37852;BME280;23691;52.486;4.650;2022-12-18T13:14:39;102370.00;;;0.04;73.16
37852;BME280;23691;52.486;4.650;2022-12-18T13:19:40;102354.22;;;0.04;73.07
37852;BME280;23691;52.486;4.650;2022-12-18T13:22:23;102345.38;;;0.05;73.22
37852;BME280;23691;52.486;4.650;2022-12-18T13:24:50;102330.41;;;0.07;73.38
37852;BME280;23691;52.486;4.650;2022-12-18T13:30:42;102306.72;;;0.07;73.18
37852;BME280;23691;52.486;4.650;2022-12-18T13:35:41;102297.13;;;0.06;73.31
37852;BME280;23691;52.486;4.650;2022-12-18T13:41:22;102283.88;;;0.07;73.32
37852;BME280;23691;52.486;4.650;2022-12-18T13:43:51;102283.88;;;0.07;73.18
37852;BME280;23691;52.486;4.650;2022-12-18T13:46:50;102275.88;;;0.10;73.34
37852;BME280;23691;52.486;4.650;2022-12-18T13:52:03;102264.38;;;0.13;73.29
37852;BME280;23691;52.486;4.650;2022-12-18T13:54:40;102277.41;;;0.16;73.36
37852;BME280;23691;52.486;4.650;2022-12-18T13:57:34;102269.38;;;0.19;73.03
37852;BME280;23691;52.486;4.650;2022-12-18T14:02:48;102262.28;;;0.21;73.23
37852;BME280;23691;52.486;4.650;2022-12-18T14:05:24;102257.94;;;0.20;72.96
37852;BME280;23691;52.486;4.650;2022-12-18T14:07:51;102257.94;;;0.20;73.22
37852;BME280;23691;52.486;4.650;2022-12-18T14:10:17;102257.94;;;0.20;73.29
37852;BME280;23691;52.486;4.650;2022-12-18T14:12:48;102262.22;;;0.23;73.22
37852;BME280;23691;52.486;4.650;2022-12-18T14:20:47;102250.09;;;0.18;72.97
37852;BME280;23691;52.486;4.650;2022-12-18T14:23:33;102240.38;;;0.20;73.17
37852;BME280;23691;52.486;4.650;2022-12-18T14:26:19;102241.28;;;0.19;73.11
37852;BME280;23691;52.486;4.650;2022-12-18T14:28:46;102229.84;;;0.20;73.08
37852;BME280;23691;52.486;4.650;2022-12-18T14:31:38;102220.09;;;0.23;72.94